Terminal Aerodrome Forecast
Issued by NWS

Home | Current Version | Previous Version | Graphics & Text | Print | Product List | Glossary On
Versions: 1 2 3 4 5 6 7 8 9 10 11 12 13 14 15
805
FTUS43 KMPX 031348 AAA
TAFRWF
TAF AMD
KRWF 031348Z 0314/0412 33016G20KT 6SM BLSN SCT040 BKN250
     FM032200 29009KT P6SM BKN250
     FM040300 24007KT P6SM OVC120
     FM040800 22006KT P6SM OVC050=

USA.gov is the U.S. government's official web portal to all federal, state and local government web resources and services.